sensor_id;sensor_type;location;lat;lon;timestamp;temperature;humidity
28773;DHT22;15925;51.222;5.678;2022-12-18T00:00:43;-2.90;99.90
28773;DHT22;15925;51.222;5.678;2022-12-18T00:03:09;-3.00;99.90
28773;DHT22;15925;51.222;5.678;2022-12-18T00:05:35;-3.10;99.90
28773;DHT22;15925;51.222;5.678;2022-12-18T00:08:01;-3.20;99.90
28773;DHT22;15925;51.222;5.678;2022-12-18T00:10:27;-3.10;99.90
28773;DHT22;15925;51.222;5.678;2022-12-18T00:12:53;-3.10;99.90
28773;DHT22;15925;51.222;5.678;2022-12-18T00:15:19;-3.20;99.90
28773;DHT22;15925;51.222;5.678;2022-12-18T00:17:44;-3.20;99.90
28773;DHT22;15925;51.222;5.678;2022-12-18T00:20:10;-3.20;99.90
28773;DHT22;15925;51.222;5.678;2022-12-18T00:22:36;-3.20;99.90
28773;DHT22;15925;51.222;5.678;2022-12-18T00:25:02;-3.20;99.90
28773;DHT22;15925;51.222;5.678;2022-12-18T00:27:28;-3.20;99.90
28773;DHT22;15925;51.222;5.678;2022-12-18T00:29:53;-3.20;99.90
28773;DHT22;15925;51.222;5.678;2022-12-18T00:32:19;-3.20;99.90
28773;DHT22;15925;51.222;5.678;2022-12-18T00:34:45;-3.30;99.90
28773;DHT22;15925;51.222;5.678;2022-12-18T00:37:10;-3.30;99.90
28773;DHT22;15925;51.222;5.678;2022-12-18T00:39:36;-3.30;99.90
28773;DHT22;15925;51.222;5.678;2022-12-18T00:42:02;-3.40;99.90
28773;DHT22;15925;51.222;5.678;2022-12-18T00:44:47;-3.80;99.90
28773;DHT22;15925;51.222;5.678;2022-12-18T00:47:12;-3.60;99.90
28773;DHT22;15925;51.222;5.678;2022-12-18T00:49:38;-3.50;99.90
28773;DHT22;15925;51.222;5.678;2022-12-18T00:52:04;-3.50;99.90
28773;DHT22;15925;51.222;5.678;2022-12-18T00:54:29;-3.50;99.90
28773;DHT22;15925;51.222;5.678;2022-12-18T00:56:55;-3.40;99.90
28773;DHT22;15925;51.222;5.678;2022-12-18T00:59:21;-3.50;99.90
28773;DHT22;15925;51.222;5.678;2022-12-18T01:01:47;-3.50;99.90
28773;DHT22;15925;51.222;5.678;2022-12-18T01:04:13;-3.50;99.90
28773;DHT22;15925;51.222;5.678;2022-12-18T01:06:38;-3.60;99.90
28773;DHT22;15925;51.222;5.678;2022-12-18T01:09:05;-3.60;99.90
28773;DHT22;15925;51.222;5.678;2022-12-18T01:11:30;-3.60;99.90
28773;DHT22;15925;51.222;5.678;2022-12-18T01:13:56;-3.70;99.90
28773;DHT22;15925;51.222;5.678;2022-12-18T01:16:24;-3.70;99.90
28773;DHT22;15925;51.222;5.678;2022-12-18T01:18:51;-3.80;99.90
28773;DHT22;15925;51.222;5.678;2022-12-18T01:21:18;-3.90;99.90
28773;DHT22;15925;51.222;5.678;2022-12-18T01:23:44;-3.90;99.90
28773;DHT22;15925;51.222;5.678;2022-12-18T01:26:12;-4.10;99.90
28773;DHT22;15925;51.222;5.678;2022-12-18T01:28:38;-4.20;99.90
28773;DHT22;15925;51.222;5.678;2022-12-18T01:33:36;-3.90;99.90
28773;DHT22;15925;51.222;5.678;2022-12-18T01:36:01;-3.90;99.90
28773;DHT22;15925;51.222;5.678;2022-12-18T01:38:28;-3.80;99.90
28773;DHT22;15925;51.222;5.678;2022-12-18T01:40:57;-3.90;99.90
28773;DHT22;15925;51.222;5.678;2022-12-18T01:43:39;-3.90;99.90
28773;DHT22;15925;51.222;5.678;2022-12-18T01:46:05;-3.90;99.90
28773;DHT22;15925;51.222;5.678;2022-12-18T01:48:31;-3.90;99.90
28773;DHT22;15925;51.222;5.678;2022-12-18T01:50:57;-3.90;99.90
28773;DHT22;15925;51.222;5.678;2022-12-18T01:53:25;-3.90;99.90
28773;DHT22;15925;51.222;5.678;2022-12-18T01:55:55;-3.90;99.90
28773;DHT22;15925;51.222;5.678;2022-12-18T01:58:23;-4.00;99.90
28773;DHT22;15925;51.222;5.678;2022-12-18T02:00:49;-4.00;99.90
28773;DHT22;15925;51.222;5.678;2022-12-18T02:03:15;-4.00;99.90
28773;DHT22;15925;51.222;5.678;2022-12-18T02:10:44;-4.30;99.90
28773;DHT22;15925;51.222;5.678;2022-12-18T02:13:13;-4.20;99.90
28773;DHT22;15925;51.222;5.678;2022-12-18T02:15:41;-4.20;99.90
28773;DHT22;15925;51.222;5.678;2022-12-18T02:18:20;-4.10;99.90
28773;DHT22;15925;51.222;5.678;2022-12-18T02:21:11;-4.20;99.90
28773;DHT22;15925;51.222;5.678;2022-12-18T02:28:34;-4.10;99.90
28773;DHT22;15925;51.222;5.678;2022-12-18T02:31:04;-4.20;99.90
28773;DHT22;15925;51.222;5.678;2022-12-18T02:33:31;-4.20;99.90
28773;DHT22;15925;51.222;5.678;2022-12-18T02:35:59;-4.30;99.90
28773;DHT22;15925;51.222;5.678;2022-12-18T02:38:26;-4.50;99.90
28773;DHT22;15925;51.222;5.678;2022-12-18T02:40:54;-4.40;99.90
28773;DHT22;15925;51.222;5.678;2022-12-18T02:43:21;-4.30;99.90
28773;DHT22;15925;51.222;5.678;2022-12-18T02:45:48;-4.30;99.90
28773;DHT22;15925;51.222;5.678;2022-12-18T02:48:14;-4.40;99.90
28773;DHT22;15925;51.222;5.678;2022-12-18T02:50:50;-4.40;99.90
28773;DHT22;15925;51.222;5.678;2022-12-18T02:53:30;-4.30;99.90
28773;DHT22;15925;51.222;5.678;2022-12-18T02:56:05;-4.30;99.90
28773;DHT22;15925;51.222;5.678;2022-12-18T02:58:35;-4.70;99.90
28773;DHT22;15925;51.222;5.678;2022-12-18T03:03:41;-4.80;99.90
28773;DHT22;15925;51.222;5.678;2022-12-18T03:06:10;-4.90;99.90
28773;DHT22;15925;51.222;5.678;2022-12-18T03:08:41;-4.80;99.90
28773;DHT22;15925;51.222;5.678;2022-12-18T03:11:09;-4.70;99.90
28773;DHT22;15925;51.222;5.678;2022-12-18T03:13:46;-4.60;99.90
28773;DHT22;15925;51.222;5.678;2022-12-18T03:16:20;-4.60;99.90
28773;DHT22;15925;51.222;5.678;2022-12-18T03:18:49;-4.70;99.90
28773;DHT22;15925;51.222;5.678;2022-12-18T03:21:18;-4.70;99.90
28773;DHT22;15925;51.222;5.678;2022-12-18T03:23:46;-4.60;99.90
28773;DHT22;15925;51.222;5.678;2022-12-18T03:26:15;-4.60;99.90
28773;DHT22;15925;51.222;5.678;2022-12-18T03:28:50;-4.50;99.90
28773;DHT22;15925;51.222;5.678;2022-12-18T03:31:18;-4.70;99.90
28773;DHT22;15925;51.222;5.678;2022-12-18T03:33:55;-4.70;99.90
28773;DHT22;15925;51.222;5.678;2022-12-18T03:36:28;-4.60;99.90
28773;DHT22;15925;51.222;5.678;2022-12-18T03:38:54;-4.50;99.90
28773;DHT22;15925;51.222;5.678;2022-12-18T03:44:26;-4.60;99.90
28773;DHT22;15925;51.222;5.678;2022-12-18T03:47:06;-4.80;99.90
28773;DHT22;15925;51.222;5.678;2022-12-18T03:49:37;-4.60;99.90
28773;DHT22;15925;51.222;5.678;2022-12-18T03:52:20;-4.50;99.90
28773;DHT22;15925;51.222;5.678;2022-12-18T03:54:48;-4.40;99.90
28773;DHT22;15925;51.222;5.678;2022-12-18T03:57:16;-4.40;99.90
28773;DHT22;15925;51.222;5.678;2022-12-18T03:59:44;-4.40;99.90
28773;DHT22;15925;51.222;5.678;2022-12-18T04:02:12;-4.60;99.90
28773;DHT22;15925;51.222;5.678;2022-12-18T04:04:39;-4.60;99.90
28773;DHT22;15925;51.222;5.678;2022-12-18T04:07:05;-4.60;99.90
28773;DHT22;15925;51.222;5.678;2022-12-18T04:09:35;-4.60;99.90
28773;DHT22;15925;51.222;5.678;2022-12-18T04:12:01;-4.60;99.90
28773;DHT22;15925;51.222;5.678;2022-12-18T04:14:26;-4.60;99.90
28773;DHT22;15925;51.222;5.678;2022-12-18T04:16:55;-4.70;99.90
28773;DHT22;15925;51.222;5.678;2022-12-18T04:19:26;-4.80;99.90
28773;DHT22;15925;51.222;5.678;2022-12-18T04:21:53;-4.70;99.90
28773;DHT22;15925;51.222;5.678;2022-12-18T04:24:19;-4.60;99.90
28773;DHT22;15925;51.222;5.678;2022-12-18T04:26:53;-4.60;99.90
28773;DHT22;15925;51.222;5.678;2022-12-18T04:29:26;-4.50;99.90
28773;DHT22;15925;51.222;5.678;2022-12-18T04:31:51;-4.50;99.90
28773;DHT22;15925;51.222;5.678;2022-12-18T04:34:18;-4.50;99.90
28773;DHT22;15925;51.222;5.678;2022-12-18T04:36:49;-4.50;99.90
28773;DHT22;15925;51.222;5.678;2022-12-18T04:39:18;-4.40;99.90
28773;DHT22;15925;51.222;5.678;2022-12-18T04:41:44;-4.40;99.90
28773;DHT22;15925;51.222;5.678;2022-12-18T04:44:12;-4.30;99.90
28773;DHT22;15925;51.222;5.678;2022-12-18T04:46:37;-4.40;99.90
28773;DHT22;15925;51.222;5.678;2022-12-18T04:49:03;-4.40;99.90
28773;DHT22;15925;51.222;5.678;2022-12-18T04:51:29;-4.40;99.90
28773;DHT22;15925;51.222;5.678;2022-12-18T04:53:54;-4.40;99.90
28773;DHT22;15925;51.222;5.678;2022-12-18T04:56:20;-4.40;99.90
28773;DHT22;15925;51.222;5.678;2022-12-18T04:58:46;-4.40;99.90
28773;DHT22;15925;51.222;5.678;2022-12-18T05:01:13;-4.40;99.90
28773;DHT22;15925;51.222;5.678;2022-12-18T05:03:39;-4.40;99.90
28773;DHT22;15925;51.222;5.678;2022-12-18T05:06:05;-4.40;99.90
28773;DHT22;15925;51.222;5.678;2022-12-18T05:08:31;-4.40;99.90
28773;DHT22;15925;51.222;5.678;2022-12-18T05:10:58;-4.50;99.90
28773;DHT22;15925;51.222;5.678;2022-12-18T05:13:23;-4.40;99.90
28773;DHT22;15925;51.222;5.678;2022-12-18T05:15:52;-4.40;99.90
28773;DHT22;15925;51.222;5.678;2022-12-18T05:18:18;-4.40;99.90
28773;DHT22;15925;51.222;5.678;2022-12-18T05:20:44;-4.40;99.90
28773;DHT22;15925;51.222;5.678;2022-12-18T05:23:09;-4.40;99.90
28773;DHT22;15925;51.222;5.678;2022-12-18T05:25:35;-4.30;99.90
28773;DHT22;15925;51.222;5.678;2022-12-18T05:28:01;-4.30;99.90
28773;DHT22;15925;51.222;5.678;2022-12-18T05:30:26;-4.30;99.90
28773;DHT22;15925;51.222;5.678;2022-12-18T05:32:53;-4.30;99.90
28773;DHT22;15925;51.222;5.678;2022-12-18T05:35:18;-4.40;99.90
28773;DHT22;15925;51.222;5.678;2022-12-18T05:37:45;-4.40;99.90
28773;DHT22;15925;51.222;5.678;2022-12-18T05:40:11;-4.50;99.90
28773;DHT22;15925;51.222;5.678;2022-12-18T05:42:37;-4.40;99.90
28773;DHT22;15925;51.222;5.678;2022-12-18T05:45:03;-4.40;99.90
28773;DHT22;15925;51.222;5.678;2022-12-18T05:47:29;-4.40;99.90
28773;DHT22;15925;51.222;5.678;2022-12-18T05:49:55;-4.40;99.90
28773;DHT22;15925;51.222;5.678;2022-12-18T05:52:20;-4.40;99.90
28773;DHT22;15925;51.222;5.678;2022-12-18T05:54:46;-4.40;99.90
28773;DHT22;15925;51.222;5.678;2022-12-18T05:57:12;-4.40;99.90
28773;DHT22;15925;51.222;5.678;2022-12-18T05:59:38;-4.40;99.90
28773;DHT22;15925;51.222;5.678;2022-12-18T06:02:03;-4.40;99.90
28773;DHT22;15925;51.222;5.678;2022-12-18T06:04:29;-4.40;99.90
28773;DHT22;15925;51.222;5.678;2022-12-18T06:06:55;-4.50;99.90
28773;DHT22;15925;51.222;5.678;2022-12-18T06:09:23;-4.40;99.90
28773;DHT22;15925;51.222;5.678;2022-12-18T06:11:49;-4.50;99.90
28773;DHT22;15925;51.222;5.678;2022-12-18T06:14:16;-4.50;99.90
28773;DHT22;15925;51.222;5.678;2022-12-18T06:16:42;-4.50;99.90
28773;DHT22;15925;51.222;5.678;2022-12-18T06:19:12;-4.50;99.90
28773;DHT22;15925;51.222;5.678;2022-12-18T06:21:39;-4.50;99.90
28773;DHT22;15925;51.222;5.678;2022-12-18T06:24:04;-4.60;99.90
28773;DHT22;15925;51.222;5.678;2022-12-18T06:26:30;-4.60;99.90
28773;DHT22;15925;51.222;5.678;2022-12-18T06:28:56;-4.60;99.90
28773;DHT22;15925;51.222;5.678;2022-12-18T06:31:21;-4.60;99.90
28773;DHT22;15925;51.222;5.678;2022-12-18T06:33:47;-4.60;99.90
28773;DHT22;15925;51.222;5.678;2022-12-18T06:36:13;-4.60;99.90
28773;DHT22;15925;51.222;5.678;2022-12-18T06:38:40;-4.60;99.90
28773;DHT22;15925;51.222;5.678;2022-12-18T06:41:07;-4.70;99.90
28773;DHT22;15925;51.222;5.678;2022-12-18T06:43:33;-4.60;99.90
28773;DHT22;15925;51.222;5.678;2022-12-18T06:45:59;-4.60;99.90
28773;DHT22;15925;51.222;5.678;2022-12-18T06:48:25;-4.60;99.90
28773;DHT22;15925;51.222;5.678;2022-12-18T06:50:50;-4.60;99.90
28773;DHT22;15925;51.222;5.678;2022-12-18T06:53:16;-4.60;99.90
28773;DHT22;15925;51.222;5.678;2022-12-18T06:55:42;-4.60;99.90
28773;DHT22;15925;51.222;5.678;2022-12-18T06:58:08;-4.60;99.90
28773;DHT22;15925;51.222;5.678;2022-12-18T07:00:34;-4.60;99.90
28773;DHT22;15925;51.222;5.678;2022-12-18T07:02:59;-4.70;99.90
28773;DHT22;15925;51.222;5.678;2022-12-18T07:05:25;-4.60;99.90
28773;DHT22;15925;51.222;5.678;2022-12-18T07:07:51;-4.60;99.90
28773;DHT22;15925;51.222;5.678;2022-12-18T07:10:16;-4.70;99.90
28773;DHT22;15925;51.222;5.678;2022-12-18T07:12:42;-4.80;99.90
28773;DHT22;15925;51.222;5.678;2022-12-18T07:15:08;-4.80;99.90
28773;DHT22;15925;51.222;5.678;2022-12-18T07:17:33;-4.70;99.90
28773;DHT22;15925;51.222;5.678;2022-12-18T07:19:59;-4.70;99.90
28773;DHT22;15925;51.222;5.678;2022-12-18T07:22:25;-4.60;99.90
28773;DHT22;15925;51.222;5.678;2022-12-18T07:24:51;-4.70;99.90
28773;DHT22;15925;51.222;5.678;2022-12-18T07:27:17;-4.70;99.90
28773;DHT22;15925;51.222;5.678;2022-12-18T07:29:42;-4.70;99.90
28773;DHT22;15925;51.222;5.678;2022-12-18T07:32:08;-4.70;99.90
28773;DHT22;15925;51.222;5.678;2022-12-18T07:34:34;-4.70;99.90
28773;DHT22;15925;51.222;5.678;2022-12-18T07:36:59;-4.80;99.90
28773;DHT22;15925;51.222;5.678;2022-12-18T07:39:25;-4.80;99.90
28773;DHT22;15925;51.222;5.678;2022-12-18T07:41:51;-4.80;99.90
28773;DHT22;15925;51.222;5.678;2022-12-18T07:44:38;-4.80;99.90
28773;DHT22;15925;51.222;5.678;2022-12-18T07:47:04;-4.80;99.90
28773;DHT22;15925;51.222;5.678;2022-12-18T07:49:30;-4.80;99.90
28773;DHT22;15925;51.222;5.678;2022-12-18T07:51:55;-4.80;99.90
28773;DHT22;15925;51.222;5.678;2022-12-18T07:54:24;-4.80;99.90
28773;DHT22;15925;51.222;5.678;2022-12-18T07:56:50;-4.80;99.90
28773;DHT22;15925;51.222;5.678;2022-12-18T07:59:16;-4.80;99.90
28773;DHT22;15925;51.222;5.678;2022-12-18T08:01:42;-4.80;99.90
28773;DHT22;15925;51.222;5.678;2022-12-18T08:04:07;-4.90;99.90
28773;DHT22;15925;51.222;5.678;2022-12-18T08:06:33;-4.80;99.90
28773;DHT22;15925;51.222;5.678;2022-12-18T08:08:58;-4.80;99.90
28773;DHT22;15925;51.222;5.678;2022-12-18T08:11:25;-4.70;99.90
28773;DHT22;15925;51.222;5.678;2022-12-18T08:13:51;-4.70;99.90
28773;DHT22;15925;51.222;5.678;2022-12-18T08:16:17;-4.80;99.90
28773;DHT22;15925;51.222;5.678;2022-12-18T08:18:42;-4.70;99.90
28773;DHT22;15925;51.222;5.678;2022-12-18T08:23:34;-4.60;99.90
28773;DHT22;15925;51.222;5.678;2022-12-18T08:26:00;-4.60;99.90
28773;DHT22;15925;51.222;5.678;2022-12-18T08:28:26;-4.60;99.90
28773;DHT22;15925;51.222;5.678;2022-12-18T08:30:52;-4.60;99.90
28773;DHT22;15925;51.222;5.678;2022-12-18T08:33:17;-4.70;99.90
28773;DHT22;15925;51.222;5.678;2022-12-18T08:35:43;-4.60;99.90
28773;DHT22;15925;51.222;5.678;2022-12-18T08:38:09;-4.60;99.90
28773;DHT22;15925;51.222;5.678;2022-12-18T08:40:34;-4.50;99.90
28773;DHT22;15925;51.222;5.678;2022-12-18T08:43:00;-4.50;99.90
28773;DHT22;15925;51.222;5.678;2022-12-18T08:45:44;-4.40;99.90
28773;DHT22;15925;51.222;5.678;2022-12-18T08:48:10;-4.40;99.90
28773;DHT22;15925;51.222;5.678;2022-12-18T08:50:36;-4.40;99.90
28773;DHT22;15925;51.222;5.678;2022-12-18T08:53:01;-4.30;99.90
28773;DHT22;15925;51.222;5.678;2022-12-18T08:55:27;-4.30;99.90
28773;DHT22;15925;51.222;5.678;2022-12-18T08:57:52;-4.30;99.90
28773;DHT22;15925;51.222;5.678;2022-12-18T09:00:18;-4.20;99.90
28773;DHT22;15925;51.222;5.678;2022-12-18T09:02:44;-4.20;99.90
28773;DHT22;15925;51.222;5.678;2022-12-18T09:05:09;-4.10;99.90
28773;DHT22;15925;51.222;5.678;2022-12-18T09:07:35;-4.10;99.90
28773;DHT22;15925;51.222;5.678;2022-12-18T09:10:01;-4.00;99.90
28773;DHT22;15925;51.222;5.678;2022-12-18T09:12:26;-3.90;99.90
28773;DHT22;15925;51.222;5.678;2022-12-18T09:14:52;-3.90;99.90
28773;DHT22;15925;51.222;5.678;2022-12-18T09:17:18;-3.80;99.90
28773;DHT22;15925;51.222;5.678;2022-12-18T09:19:43;-3.90;99.90
28773;DHT22;15925;51.222;5.678;2022-12-18T09:22:09;-3.70;99.90
28773;DHT22;15925;51.222;5.678;2022-12-18T09:24:35;-3.80;99.90
28773;DHT22;15925;51.222;5.678;2022-12-18T09:27:00;-3.70;99.90
28773;DHT22;15925;51.222;5.678;2022-12-18T09:29:26;-3.70;99.90
28773;DHT22;15925;51.222;5.678;2022-12-18T09:31:52;-3.60;99.90
28773;DHT22;15925;51.222;5.678;2022-12-18T09:34:18;-3.50;99.90
28773;DHT22;15925;51.222;5.678;2022-12-18T09:36:46;-3.50;99.90
28773;DHT22;15925;51.222;5.678;2022-12-18T09:39:12;-3.40;99.90
28773;DHT22;15925;51.222;5.678;2022-12-18T09:46:40;-3.20;99.90
28773;DHT22;15925;51.222;5.678;2022-12-18T09:49:11;-3.10;99.90
28773;DHT22;15925;51.222;5.678;2022-12-18T09:54:04;-3.00;99.90
28773;DHT22;15925;51.222;5.678;2022-12-18T09:56:31;-2.90;99.90
28773;DHT22;15925;51.222;5.678;2022-12-18T09:59:00;-2.90;99.90
28773;DHT22;15925;51.222;5.678;2022-12-18T10:01:27;-2.80;99.90
28773;DHT22;15925;51.222;5.678;2022-12-18T10:03:54;-2.70;99.90
28773;DHT22;15925;51.222;5.678;2022-12-18T10:06:21;-2.70;99.90
28773;DHT22;15925;51.222;5.678;2022-12-18T10:16:54;-2.40;99.90
28773;DHT22;15925;51.222;5.678;2022-12-18T10:22:22;-2.30;99.90
28773;DHT22;15925;51.222;5.678;2022-12-18T10:27:36;-2.20;99.90
28773;DHT22;15925;51.222;5.678;2022-12-18T10:30:04;-2.10;99.90
28773;DHT22;15925;51.222;5.678;2022-12-18T10:32:37;-2.00;99.90
28773;DHT22;15925;51.222;5.678;2022-12-18T10:35:03;-2.00;99.90
28773;DHT22;15925;51.222;5.678;2022-12-18T10:37:29;-2.00;99.90
28773;DHT22;15925;51.222;5.678;2022-12-18T10:42:33;-1.90;99.90
28773;DHT22;15925;51.222;5.678;2022-12-18T10:45:16;-1.80;99.90
28773;DHT22;15925;51.222;5.678;2022-12-18T10:47:46;-1.80;99.90
28773;DHT22;15925;51.222;5.678;2022-12-18T10:50:47;-1.70;99.90
28773;DHT22;15925;51.222;5.678;2022-12-18T10:53:05;-1.70;99.90
28773;DHT22;15925;51.222;5.678;2022-12-18T10:55:34;-1.60;99.90
28773;DHT22;15925;51.222;5.678;2022-12-18T11:00:45;-1.50;99.90
28773;DHT22;15925;51.222;5.678;2022-12-18T11:03:33;-1.50;99.90
28773;DHT22;15925;51.222;5.678;2022-12-18T11:06:05;-1.50;99.90
28773;DHT22;15925;51.222;5.678;2022-12-18T11:08:31;-1.40;99.90
28773;DHT22;15925;51.222;5.678;2022-12-18T11:10:57;-1.40;99.90
28773;DHT22;15925;51.222;5.678;2022-12-18T11:13:23;-1.30;99.90
28773;DHT22;15925;51.222;5.678;2022-12-18T11:15:50;-1.30;99.90
28773;DHT22;15925;51.222;5.678;2022-12-18T11:18:24;-1.20;99.90
28773;DHT22;15925;51.222;5.678;2022-12-18T11:20:52;-1.20;99.90
28773;DHT22;15925;51.222;5.678;2022-12-18T11:23:18;-1.10;99.90
28773;DHT22;15925;51.222;5.678;2022-12-18T11:25:50;-1.10;99.90
28773;DHT22;15925;51.222;5.678;2022-12-18T11:28:35;-1.10;99.90
28773;DHT22;15925;51.222;5.678;2022-12-18T11:31:12;-1.00;99.90
28773;DHT22;15925;51.222;5.678;2022-12-18T11:33:42;-1.00;99.90
28773;DHT22;15925;51.222;5.678;2022-12-18T11:36:09;-0.90;99.90
28773;DHT22;15925;51.222;5.678;2022-12-18T11:38:35;-0.90;99.90
28773;DHT22;15925;51.222;5.678;2022-12-18T11:41:07;-0.90;99.90
28773;DHT22;15925;51.222;5.678;2022-12-18T11:46:07;-0.80;99.90
28773;DHT22;15925;51.222;5.678;2022-12-18T11:48:37;-0.80;99.90
28773;DHT22;15925;51.222;5.678;2022-12-18T11:51:04;-0.70;99.90
28773;DHT22;15925;51.222;5.678;2022-12-18T11:53:31;-0.70;99.90
28773;DHT22;15925;51.222;5.678;2022-12-18T12:11:35;-0.50;99.90
28773;DHT22;15925;51.222;5.678;2022-12-18T12:16:48;-0.40;99.90
28773;DHT22;15925;51.222;5.678;2022-12-18T12:29:18;-0.30;99.90
28773;DHT22;15925;51.222;5.678;2022-12-18T12:34:43;-0.20;99.90
28773;DHT22;15925;51.222;5.678;2022-12-18T12:39:40;-0.10;99.90
28773;DHT22;15925;51.222;5.678;2022-12-18T12:42:14;-0.10;99.90
28773;DHT22;15925;51.222;5.678;2022-12-18T12:45:25;0.00;99.90
28773;DHT22;15925;51.222;5.678;2022-12-18T12:47:53;0.00;99.90
28773;DHT22;15925;51.222;5.678;2022-12-18T12:50:20;0.00;99.90
28773;DHT22;15925;51.222;5.678;2022-12-18T12:52:56;0.00;99.90
28773;DHT22;15925;51.222;5.678;2022-12-18T12:55:26;0.10;99.90
28773;DHT22;15925;51.222;5.678;2022-12-18T13:00:19;0.10;99.90
28773;DHT22;15925;51.222;5.678;2022-12-18T13:05:22;0.30;99.90
28773;DHT22;15925;51.222;5.678;2022-12-18T13:07:57;0.20;99.90
28773;DHT22;15925;51.222;5.678;2022-12-18T13:10:31;0.20;99.90
28773;DHT22;15925;51.222;5.678;2022-12-18T13:13:15;0.30;99.90
28773;DHT22;15925;51.222;5.678;2022-12-18T13:15:45;0.30;99.90
28773;DHT22;15925;51.222;5.678;2022-12-18T13:18:14;0.30;99.90
28773;DHT22;15925;51.222;5.678;2022-12-18T13:25:44;0.30;99.90
28773;DHT22;15925;51.222;5.678;2022-12-18T13:40:58;0.50;99.90
28773;DHT22;15925;51.222;5.678;2022-12-18T13:43:27;0.50;99.90
28773;DHT22;15925;51.222;5.678;2022-12-18T13:46:00;0.50;99.90
28773;DHT22;15925;51.222;5.678;2022-12-18T13:48:27;0.60;99.90
28773;DHT22;15925;51.222;5.678;2022-12-18T13:50:55;0.60;99.90
28773;DHT22;15925;51.222;5.678;2022-12-18T13:53:26;0.60;99.90
28773;DHT22;15925;51.222;5.678;2022-12-18T13:55:52;0.60;99.90
28773;DHT22;15925;51.222;5.678;2022-12-18T13:58:18;0.60;99.90
28773;DHT22;15925;51.222;5.678;2022-12-18T14:00:44;0.60;99.90
28773;DHT22;15925;51.222;5.678;2022-12-18T14:03:17;0.60;99.90
28773;DHT22;15925;51.222;5.678;2022-12-18T14:05:44;0.60;99.90
28773;DHT22;15925;51.222;5.678;2022-12-18T14:08:12;0.60;99.90
28773;DHT22;15925;51.222;5.678;2022-12-18T14:10:41;0.70;99.90
28773;DHT22;15925;51.222;5.678;2022-12-18T14:13:08;0.70;99.90
28773;DHT22;15925;51.222;5.678;2022-12-18T14:15:41;0.70;99.90
28773;DHT22;15925;51.222;5.678;2022-12-18T14:18:24;0.70;99.90
28773;DHT22;15925;51.222;5.678;2022-12-18T14:20:51;0.70;99.90
28773;DHT22;15925;51.222;5.678;2022-12-18T14:25:58;0.80;99.90
28773;DHT22;15925;51.222;5.678;2022-12-18T14:28:23;0.70;99.90
28773;DHT22;15925;51.222;5.678;2022-12-18T14:30:50;0.70;99.90
28773;DHT22;15925;51.222;5.678;2022-12-18T14:33:26;0.80;99.90
28773;DHT22;15925;51.222;5.678;2022-12-18T14:35:58;0.70;99.90
28773;DHT22;15925;51.222;5.678;2022-12-18T14:38:29;0.80;99.90
28773;DHT22;15925;51.222;5.678;2022-12-18T14:43:21;0.90;99.90
28773;DHT22;15925;51.222;5.678;2022-12-18T14:45:47;0.90;99.90
28773;DHT22;15925;51.222;5.678;2022-12-18T14:48:33;0.80;99.90
28773;DHT22;15925;51.222;5.678;2022-12-18T14:51:05;0.80;99.90
28773;DHT22;15925;51.222;5.678;2022-12-18T14:53:41;0.80;99.90
28773;DHT22;15925;51.222;5.678;2022-12-18T14:56:14;0.80;99.90
28773;DHT22;15925;51.222;5.678;2022-12-18T14:58:44;0.80;99.90
28773;DHT22;15925;51.222;5.678;2022-12-18T15:01:17;0.90;99.90
28773;DHT22;15925;51.222;5.678;2022-12-18T15:03:43;0.80;99.90
28773;DHT22;15925;51.222;5.678;2022-12-18T15:06:24;0.90;99.90
28773;DHT22;15925;51.222;5.678;2022-12-18T15:08:51;0.90;99.90
28773;DHT22;15925;51.222;5.678;2022-12-18T15:11:28;0.90;99.90
28773;DHT22;15925;51.222;5.678;2022-12-18T15:13:54;1.00;99.90
28773;DHT22;15925;51.222;5.678;2022-12-18T15:16:20;0.90;99.90
28773;DHT22;15925;51.222;5.678;2022-12-18T15:18:46;1.00;99.90
28773;DHT22;15925;51.222;5.678;2022-12-18T15:21:19;1.00;99.90
28773;DHT22;15925;51.222;5.678;2022-12-18T15:26:11;1.00;99.90
28773;DHT22;15925;51.222;5.678;2022-12-18T15:31:23;1.00;99.90
28773;DHT22;15925;51.222;5.678;2022-12-18T15:36:18;1.10;99.90
28773;DHT22;15925;51.222;5.678;2022-12-18T15:38:48;1.00;99.90
28773;DHT22;15925;51.222;5.678;2022-12-18T15:41:14;1.00;99.90
28773;DHT22;15925;51.222;5.678;2022-12-18T15:43:40;1.10;99.90
28773;DHT22;15925;51.222;5.678;2022-12-18T15:46:09;1.10;99.90
28773;DHT22;15925;51.222;5.678;2022-12-18T15:48:43;1.10;99.90
28773;DHT22;15925;51.222;5.678;2022-12-18T15:53:38;1.20;99.90
28773;DHT22;15925;51.222;5.678;2022-12-18T15:56:04;1.10;99.90
28773;DHT22;15925;51.222;5.678;2022-12-18T15:58:48;1.20;99.90
28773;DHT22;15925;51.222;5.678;2022-12-18T16:01:14;1.10;99.90
28773;DHT22;15925;51.222;5.678;2022-12-18T16:03:40;1.20;99.90
28773;DHT22;15925;51.222;5.678;2022-12-18T16:06:05;1.10;99.90
28773;DHT22;15925;51.222;5.678;2022-12-18T16:08:31;1.10;99.90
28773;DHT22;15925;51.222;5.678;2022-12-18T16:10:57;1.20;99.90
28773;DHT22;15925;51.222;5.678;2022-12-18T16:13:23;1.20;99.90
28773;DHT22;15925;51.222;5.678;2022-12-18T16:15:49;1.20;99.90
28773;DHT22;15925;51.222;5.678;2022-12-18T16:18:15;1.20;99.90
28773;DHT22;15925;51.222;5.678;2022-12-18T16:20:40;1.20;99.90
28773;DHT22;15925;51.222;5.678;2022-12-18T16:23:06;1.20;99.90
28773;DHT22;15925;51.222;5.678;2022-12-18T16:25:32;1.20;99.90
28773;DHT22;15925;51.222;5.678;2022-12-18T16:27:58;1.20;99.90
28773;DHT22;15925;51.222;5.678;2022-12-18T16:30:25;1.10;99.90
28773;DHT22;15925;51.222;5.678;2022-12-18T16:32:56;1.20;99.90
28773;DHT22;15925;51.222;5.678;2022-12-18T16:35:22;1.10;99.90
28773;DHT22;15925;51.222;5.678;2022-12-18T16:37:47;1.10;99.90
28773;DHT22;15925;51.222;5.678;2022-12-18T16:40:14;1.20;99.90
28773;DHT22;15925;51.222;5.678;2022-12-18T16:42:41;1.10;99.90
28773;DHT22;15925;51.222;5.678;2022-12-18T16:45:08;1.10;99.90
28773;DHT22;15925;51.222;5.678;2022-12-18T16:47:34;1.20;99.90
28773;DHT22;15925;51.222;5.678;2022-12-18T16:50:00;1.20;99.90
28773;DHT22;15925;51.222;5.678;2022-12-18T16:52:25;1.20;99.90
28773;DHT22;15925;51.222;5.678;2022-12-18T16:54:51;1.20;99.90
28773;DHT22;15925;51.222;5.678;2022-12-18T16:57:18;1.20;99.90
28773;DHT22;15925;51.222;5.678;2022-12-18T16:59:43;1.20;99.90
28773;DHT22;15925;51.222;5.678;2022-12-18T17:02:16;1.20;99.90
28773;DHT22;15925;51.222;5.678;2022-12-18T17:04:42;1.20;99.90
28773;DHT22;15925;51.222;5.678;2022-12-18T17:07:08;1.10;99.90
28773;DHT22;15925;51.222;5.678;2022-12-18T17:09:34;1.20;99.90
28773;DHT22;15925;51.222;5.678;2022-12-18T17:12:00;1.20;99.90
28773;DHT22;15925;51.222;5.678;2022-12-18T17:14:26;1.20;99.90
28773;DHT22;15925;51.222;5.678;2022-12-18T17:16:52;1.20;99.90
28773;DHT22;15925;51.222;5.678;2022-12-18T17:19:18;1.20;99.90
28773;DHT22;15925;51.222;5.678;2022-12-18T17:21:45;1.20;99.90
28773;DHT22;15925;51.222;5.678;2022-12-18T17:24:11;1.20;99.90
28773;DHT22;15925;51.222;5.678;2022-12-18T17:26:37;1.20;99.90
28773;DHT22;15925;51.222;5.678;2022-12-18T17:29:03;1.20;99.90
28773;DHT22;15925;51.222;5.678;2022-12-18T17:31:29;1.20;99.90
28773;DHT22;15925;51.222;5.678;2022-12-18T17:33:55;1.20;99.90
28773;DHT22;15925;51.222;5.678;2022-12-18T17:36:20;1.20;99.90
28773;DHT22;15925;51.222;5.678;2022-12-18T17:38:53;1.30;99.90
28773;DHT22;15925;51.222;5.678;2022-12-18T17:41:19;1.20;99.90